Time;durP1;ratioP1;P1;durP2;ratioP2;P2;SDS_P1;SDS_P2;PMS_P1;PMS_P2;Temp;Humidity;BMP_temperature;BMP_pressure;BME280_temperature;BME280_humidity;BME280_pressure;Samples;Min_cycle;Max_cycle;Signal;HPM_P1;HPM_P2
2023/02/26 00:00:57;;;;;;;6.90;2.97;;;;;;;-2.09;79.58;99149.72;5078140;28;20036;-60
2023/02/26 00:03:22;;;;;;;9.10;2.90;;;;;;;-1.97;79.20;99148.44;5080877;28;20137;-60
2023/02/26 00:05:47;;;;;;;6.25;2.50;;;;;;;-1.97;79.16;99139.72;5083811;28;20593;-60
2023/02/26 00:08:13;;;;;;;6.03;2.80;;;;;;;-1.91;79.23;99148.75;5071440;28;20054;-60
2023/02/26 00:10:39;;;;;;;8.07;2.83;;;;;;;-1.88;79.83;99156.31;5083005;28;20056;-60
2023/02/26 00:13:05;;;;;;;7.95;2.78;;;;;;;-1.96;80.38;99157.94;5083359;28;20048;-60
2023/02/26 00:15:30;;;;;;;9.40;2.60;;;;;;;-1.98;81.37;99165.16;5079902;28;20159;-60
2023/02/26 00:18:06;;;;;;;5.95;2.40;;;;;;;-2.00;81.73;99166.31;5088431;28;20020;-60
2023/02/26 00:20:32;;;;;;;6.78;2.75;;;;;;;-1.99;81.20;99162.72;5079323;28;20094;-60
2023/02/26 00:22:58;;;;;;;6.55;2.53;;;;;;;-1.90;81.49;99166.16;5075546;28;20700;-60
2023/02/26 00:25:23;;;;;;;5.50;2.50;;;;;;;-1.92;82.44;99173.38;5084569;28;20491;-60
2023/02/26 00:27:49;;;;;;;7.38;2.58;;;;;;;-1.93;82.17;99174.38;5090133;28;20486;-60
2023/02/26 00:30:14;;;;;;;8.88;3.22;;;;;;;-1.85;82.54;99169.09;5087068;28;20024;-60
2023/02/26 00:32:40;;;;;;;6.60;2.90;;;;;;;-1.96;81.85;99171.06;5073477;28;20035;-59
2023/02/26 00:35:12;;;;;;;6.90;2.58;;;;;;;-1.81;83.51;99175.69;5085773;28;20032;-60
2023/02/26 00:38:06;;;;;;;8.77;3.10;;;;;;;-1.88;83.84;99182.56;5090367;28;20589;-60
2023/02/26 00:40:44;;;;;;;9.65;3.47;;;;;;;-2.04;83.79;99181.56;5060564;28;20035;-60
2023/02/26 00:43:17;;;;;;;7.07;2.60;;;;;;;-1.97;82.92;99176.50;5087909;28;20105;-60
2023/02/26 00:45:59;;;;;;;10.88;3.22;;;;;;;-2.16;83.87;99177.63;5087286;28;20029;-60
2023/02/26 00:48:51;;;;;;;10.32;3.72;;;;;;;-2.20;83.80;99192.03;5073950;28;20046;-60
2023/02/26 00:51:22;;;;;;;6.82;2.95;;;;;;;-2.21;83.63;99193.03;5070493;28;20107;-60
2023/02/26 00:53:58;;;;;;;8.13;3.10;;;;;;;-2.27;84.48;99191.03;5059127;28;20048;-60
2023/02/26 00:56:24;;;;;;;7.35;3.33;;;;;;;-2.29;84.26;99191.22;5074117;28;20085;-60
2023/02/26 00:58:49;;;;;;;15.10;6.05;;;;;;;-2.27;85.52;99198.91;5076519;28;20032;-60
2023/02/26 01:01:14;;;;;;;13.98;7.38;;;;;;;-2.20;84.75;99195.50;5064880;28;20077;-60
2023/02/26 01:03:40;;;;;;;13.65;6.43;;;;;;;-2.31;85.27;99195.00;5086257;28;20128;-59
2023/02/26 01:06:10;;;;;;;12.65;6.50;;;;;;;-2.38;85.73;99198.25;5078624;28;20491;-60
2023/02/26 01:08:43;;;;;;;11.43;5.40;;;;;;;-2.39;86.88;99190.53;5085942;28;20093;-60
2023/02/26 01:11:09;;;;;;;12.98;3.95;;;;;;;-2.27;88.02;99188.41;5056664;28;20057;-60
2023/02/26 01:13:34;;;;;;;12.95;3.70;;;;;;;-2.27;88.65;99180.53;5091853;28;20389;-59
2023/02/26 01:16:07;;;;;;;13.60;3.92;;;;;;;-2.23;88.42;99179.25;5081760;28;20071;-60
2023/02/26 01:18:40;;;;;;;7.82;3.47;;;;;;;-2.29;88.90;99179.91;5080184;28;20036;-60
2023/02/26 01:21:07;;;;;;;7.78;3.20;;;;;;;-2.39;88.16;99178.22;5063333;28;20462;-60
2023/02/26 01:23:36;;;;;;;7.47;3.20;;;;;;;-2.53;88.33;99176.22;5066033;28;20032;-60
2023/02/26 01:26:07;;;;;;;6.50;2.75;;;;;;;-2.39;88.17;99183.47;5049090;28;20032;-60
2023/02/26 01:28:33;;;;;;;7.30;2.65;;;;;;;-2.47;87.70;99182.63;5067400;28;20024;-60
2023/02/26 01:31:00;;;;;;;4.93;2.80;;;;;;;-2.50;88.36;99186.38;5084459;28;20089;-59
2023/02/26 01:33:40;;;;;;;8.32;3.03;;;;;;;-2.53;88.42;99186.72;5058595;28;20115;-59
2023/02/26 01:36:11;;;;;;;4.60;2.72;;;;;;;-2.46;89.67;99192.16;5066522;28;20044;-60
2023/02/26 01:39:04;;;;;;;6.40;2.55;;;;;;;-2.53;89.47;99191.97;5090678;28;20015;-60
2023/02/26 01:41:33;;;;;;;10.25;3.08;;;;;;;-2.56;89.87;99192.28;5052191;28;20043;-59
2023/02/26 01:44:18;;;;;;;10.35;4.07;;;;;;;-2.59;90.02;99190.00;5072580;28;20028;-60
2023/02/26 01:46:58;;;;;;;8.32;3.50;;;;;;;-2.67;89.78;99189.94;5062140;28;20064;-60
2023/02/26 01:49:24;;;;;;;6.85;2.80;;;;;;;-2.63;90.98;99196.53;5074866;28;20043;-60
2023/02/26 01:52:06;;;;;;;8.85;3.20;;;;;;;-2.70;91.36;99195.50;5076349;28;20371;-60
2023/02/26 01:54:36;;;;;;;9.88;3.63;;;;;;;-2.82;91.49;99198.44;5064632;28;20036;-59
2023/02/26 01:57:08;;;;;;;7.87;3.00;;;;;;;-2.85;92.93;99196.09;5080446;28;20036;-59
2023/02/26 01:59:37;;;;;;;7.18;2.75;;;;;;;-2.72;92.83;99197.47;5062769;28;20114;-60
2023/02/26 02:02:05;;;;;;;7.18;3.05;;;;;;;-2.80;92.67;99200.06;5079801;28;20032;-59
2023/02/26 02:04:31;;;;;;;6.68;2.83;;;;;;;-2.73;92.48;99201.06;5053255;28;20055;-60
2023/02/26 02:06:57;;;;;;;9.25;3.38;;;;;;;-2.80;93.11;99205.31;5061397;28;20111;-60
2023/02/26 02:09:22;;;;;;;7.90;3.35;;;;;;;-2.85;93.25;99211.84;5045768;28;20024;-60
2023/02/26 02:12:10;;;;;;;7.43;3.25;;;;;;;-2.83;94.64;99212.50;5081316;28;20052;-59
2023/02/26 02:14:42;;;;;;;7.65;3.13;;;;;;;-2.84;93.47;99217.94;5080519;28;20020;-60
2023/02/26 02:17:39;;;;;;;7.43;3.00;;;;;;;-2.98;93.64;99218.50;5090012;28;20090;-60
2023/02/26 02:20:18;;;;;;;10.55;3.22;;;;;;;-2.91;94.19;99215.09;5082378;28;20048;-59
2023/02/26 02:23:15;;;;;;;6.47;3.15;;;;;;;-2.88;94.25;99224.44;5065686;28;20051;-59
2023/02/26 02:26:08;;;;;;;5.30;2.80;;;;;;;-2.88;93.27;99224.44;5078606;28;20041;-60
2023/02/26 02:28:41;;;;;;;8.60;3.55;;;;;;;-2.88;93.30;99230.50;5058886;28;20081;-60
2023/02/26 02:31:24;;;;;;;11.95;3.45;;;;;;;-2.98;94.49;99234.22;5065375;28;20111;-59
2023/02/26 02:34:08;;;;;;;8.70;3.35;;;;;;;-3.03;95.37;99226.81;5061831;28;20036;-60
2023/02/26 02:37:01;;;;;;;7.45;3.40;;;;;;;-3.04;95.44;99233.88;5074965;28;20501;-60
2023/02/26 02:39:59;;;;;;;9.95;3.33;;;;;;;-3.08;95.27;99244.81;5078887;28;20507;-60
2023/02/26 02:42:29;;;;;;;8.38;3.72;;;;;;;-3.13;95.17;99242.66;5044908;28;20032;-60
2023/02/26 02:45:01;;;;;;;8.55;3.10;;;;;;;-3.10;95.33;99246.78;5059077;28;20020;-61
2023/02/26 02:47:28;;;;;;;5.85;3.55;;;;;;;-3.08;95.23;99252.69;5054748;28;21352;-60
2023/02/26 02:50:18;;;;;;;6.75;3.38;;;;;;;-3.04;95.43;99251.41;5057736;28;20024;-60
2023/02/26 02:52:51;;;;;;;9.63;3.70;;;;;;;-3.13;96.14;99247.09;5080977;28;20020;-60
2023/02/26 02:55:20;;;;;;;5.75;3.03;;;;;;;-3.07;95.87;99254.31;5046505;28;20032;-60
2023/02/26 02:57:52;;;;;;;5.53;3.38;;;;;;;-3.11;96.85;99256.44;5076119;28;20034;-59
2023/02/26 03:00:18;;;;;;;10.73;3.35;;;;;;;-3.24;96.76;99256.03;5053476;28;20500;-60
2023/02/26 03:02:50;;;;;;;8.20;3.08;;;;;;;-3.36;97.92;99247.59;5061243;28;20024;-60
2023/02/26 03:05:15;;;;;;;9.07;3.03;;;;;;;-3.31;99.25;99260.25;5088011;28;20025;-60
2023/02/26 03:08:00;;;;;;;8.07;3.08;;;;;;;-3.21;100.00;99255.72;5071214;28;20063;-60
2023/02/26 03:10:25;;;;;;;9.80;3.55;;;;;;;-3.47;98.45;99251.28;5057109;28;20440;-59
2023/02/26 03:12:51;;;;;;;6.88;3.38;;;;;;;-3.41;98.37;99265.56;5084437;28;20284;-59
2023/02/26 03:15:20;;;;;;;12.93;3.30;;;;;;;-3.42;100.00;99265.72;5080551;28;20036;-60
2023/02/26 03:17:53;;;;;;;7.38;3.60;;;;;;;-3.42;98.29;99273.56;5073563;28;20035;-60
2023/02/26 03:20:33;;;;;;;8.45;3.55;;;;;;;-3.42;100.00;99273.56;5074874;28;20027;-60
2023/02/26 03:23:21;;;;;;;6.03;3.25;;;;;;;-3.45;100.00;99273.88;5078373;28;20115;-59
2023/02/26 03:25:57;;;;;;;6.13;3.33;;;;;;;-3.62;99.88;99278.16;5044684;28;20016;-60
2023/02/26 03:28:37;;;;;;;6.18;3.10;;;;;;;-3.62;100.00;99289.47;5076303;28;20380;-60
2023/02/26 03:31:15;;;;;;;7.80;3.45;;;;;;;-3.71;100.00;99291.19;5069657;28;20386;-59
2023/02/26 03:33:55;;;;;;;9.13;3.45;;;;;;;-3.72;100.00;99289.56;5061381;28;20127;-60
2023/02/26 03:36:31;;;;;;;9.32;3.55;;;;;;;-3.65;100.00;99294.19;5058908;28;20051;-60
2023/02/26 03:39:17;;;;;;;6.53;3.85;;;;;;;-3.63;100.00;99297.47;5057573;28;20316;-60
2023/02/26 03:42:20;;;;;;;13.07;4.30;;;;;;;-3.61;99.87;99296.34;5057193;28;20039;-60
2023/02/26 03:44:51;;;;;;;10.23;4.32;;;;;;;-3.57;100.00;99291.63;5052791;28;20040;-60
2023/02/26 03:47:17;;;;;;;11.88;3.95;;;;;;;-3.50;98.96;99298.72;5060856;28;20297;-60
2023/02/26 03:49:53;;;;;;;7.47;3.47;;;;;;;-3.55;99.47;99302.78;5037455;28;20021;-60
2023/02/26 03:52:19;;;;;;;8.35;3.13;;;;;;;-3.43;98.39;99309.44;5070297;28;20034;-60
2023/02/26 03:55:10;;;;;;;6.40;3.60;;;;;;;-3.63;99.20;99307.97;5060879;28;20027;-59
2023/02/26 03:57:35;;;;;;;6.47;3.63;;;;;;;-3.59;99.43;99315.38;5049295;28;20040;-59
2023/02/26 04:00:01;;;;;;;6.10;3.47;;;;;;;-3.71;99.60;99320.00;5029899;28;20035;-59
2023/02/26 04:02:54;;;;;;;11.05;3.67;;;;;;;-3.55;100.00;99321.13;5059090;28;20016;-60
2023/02/26 04:05:32;;;;;;;6.70;3.42;;;;;;;-3.76;100.00;99324.03;5072449;28;20090;-59
2023/02/26 04:07:57;;;;;;;7.00;3.72;;;;;;;-3.80;100.00;99328.72;5058653;28;20158;-59
2023/02/26 04:10:36;;;;;;;9.05;3.60;;;;;;;-3.70;98.39;99326.06;5081339;28;20437;-59
2023/02/26 04:13:02;;;;;;;9.73;3.88;;;;;;;-3.74;98.19;99322.91;5059225;28;20032;-59
2023/02/26 04:15:27;;;;;;;9.48;3.75;;;;;;;-3.72;100.00;99320.97;5061357;28;20020;-59
2023/02/26 04:17:53;;;;;;;9.18;3.67;;;;;;;-3.63;100.00;99328.91;5077898;28;20060;-59
2023/02/26 04:20:18;;;;;;;10.95;3.88;;;;;;;-3.56;100.00;99333.41;5056898;28;20047;-59
2023/02/26 04:22:44;;;;;;;7.18;4.20;;;;;;;-3.71;100.00;99327.84;5074596;28;20048;-58
2023/02/26 04:25:09;;;;;;;6.50;4.05;;;;;;;-3.83;100.00;99330.84;5077443;28;20261;-59
2023/02/26 04:27:35;;;;;;;7.38;3.63;;;;;;;-3.97;100.00;99334.75;5079703;28;20390;-59
2023/02/26 04:30:00;;;;;;;8.93;3.78;;;;;;;-4.05;100.00;99334.69;5086752;28;20039;-59
2023/02/26 04:32:25;;;;;;;7.10;3.80;;;;;;;-4.14;100.00;99336.41;5075372;28;20715;-59
2023/02/26 04:34:51;;;;;;;8.57;3.70;;;;;;;-4.08;100.00;99338.41;5079991;28;20375;-59
2023/02/26 04:37:16;;;;;;;8.63;3.40;;;;;;;-4.15;100.00;99346.00;5075056;28;20036;-59
2023/02/26 04:39:42;;;;;;;7.85;3.97;;;;;;;-4.15;100.00;99346.00;5084862;28;20021;-58
2023/02/26 04:42:07;;;;;;;7.30;3.83;;;;;;;-4.09;100.00;99346.41;5082935;28;20494;-59
2023/02/26 04:44:32;;;;;;;9.68;4.60;;;;;;;-4.17;100.00;99357.59;5091832;28;20148;-59
2023/02/26 04:46:58;;;;;;;7.45;4.60;;;;;;;-4.18;99.83;99372.50;5069894;28;20318;-59
2023/02/26 04:49:23;;;;;;;10.73;4.38;;;;;;;-4.34;99.58;99370.50;5081758;28;20055;-59
2023/02/26 04:51:49;;;;;;;11.07;4.25;;;;;;;-4.29;100.00;99364.84;5086170;28;20167;-59
2023/02/26 04:54:14;;;;;;;9.10;4.00;;;;;;;-4.30;100.00;99365.78;5084121;28;20024;-58
2023/02/26 04:56:40;;;;;;;8.00;3.85;;;;;;;-4.25;100.00;99370.59;5078468;28;20463;-58
2023/02/26 04:59:05;;;;;;;11.98;4.53;;;;;;;-4.39;100.00;99377.94;5077930;28;20097;-59
2023/02/26 05:01:31;;;;;;;6.63;3.92;;;;;;;-4.24;100.00;99367.84;5079584;28;20021;-59
2023/02/26 05:03:56;;;;;;;8.02;3.92;;;;;;;-4.06;100.00;99369.69;5080089;28;20531;-59
2023/02/26 05:06:22;;;;;;;7.25;3.95;;;;;;;-4.34;100.00;99374.91;5074787;28;20024;-59
2023/02/26 05:08:47;;;;;;;8.23;4.30;;;;;;;-4.35;100.00;99376.69;5085515;28;20035;-58
2023/02/26 05:11:13;;;;;;;13.75;4.15;;;;;;;-4.41;100.00;99385.13;5090484;28;20434;-58
2023/02/26 05:13:38;;;;;;;8.75;4.43;;;;;;;-4.48;100.00;99385.84;5068725;28;20470;-59
2023/02/26 05:16:04;;;;;;;7.78;4.35;;;;;;;-4.51;100.00;99391.34;5080655;28;20521;-58
2023/02/26 05:18:31;;;;;;;11.25;4.18;;;;;;;-4.42;100.00;99395.72;5080468;28;20042;-59
2023/02/26 05:20:56;;;;;;;9.07;4.43;;;;;;;-4.32;100.00;99401.75;5082638;28;20028;-58
2023/02/26 05:23:22;;;;;;;7.88;4.00;;;;;;;-4.21;100.00;99393.72;5082350;28;20032;-58
2023/02/26 05:25:47;;;;;;;5.70;3.65;;;;;;;-4.21;99.02;99404.19;5084783;28;20031;-58
2023/02/26 05:28:13;;;;;;;7.25;3.88;;;;;;;-4.18;97.76;99403.09;5090948;28;20028;-59
2023/02/26 05:30:39;;;;;;;9.52;4.10;;;;;;;-4.21;98.56;99404.19;5088969;28;20028;-58
2023/02/26 05:33:04;;;;;;;12.32;4.88;;;;;;;-4.27;98.08;99409.97;5082916;28;20378;-58
2023/02/26 05:35:30;;;;;;;5.60;3.58;;;;;;;-4.12;98.52;99419.06;5080254;28;20048;-58
2023/02/26 05:37:55;;;;;;;8.68;3.88;;;;;;;-4.31;96.71;99421.72;5085440;28;20470;-59
2023/02/26 05:40:20;;;;;;;6.95;3.55;;;;;;;-4.30;98.30;99422.53;5067230;28;20019;-60
2023/02/26 05:42:46;;;;;;;7.45;3.88;;;;;;;-4.33;98.86;99428.88;5061989;28;20016;-60
2023/02/26 05:45:11;;;;;;;8.75;3.90;;;;;;;-4.39;99.39;99425.06;5088256;28;20053;-59
2023/02/26 05:47:37;;;;;;;8.40;3.85;;;;;;;-4.44;99.27;99424.66;5079381;28;20024;-59
2023/02/26 05:50:03;;;;;;;8.90;3.92;;;;;;;-4.55;98.48;99422.19;5091696;28;20082;-59
2023/02/26 05:52:29;;;;;;;7.65;3.70;;;;;;;-4.62;99.14;99431.56;5064789;28;20055;-59
2023/02/26 05:54:54;;;;;;;8.10;4.63;;;;;;;-4.51;99.84;99430.59;5087065;28;20537;-59
2023/02/26 05:57:20;;;;;;;7.05;4.10;;;;;;;-4.52;99.82;99431.53;5096013;28;20107;-59
2023/02/26 05:59:46;;;;;;;5.35;3.15;;;;;;;-4.60;99.34;99430.44;5086822;28;20028;-59
2023/02/26 06:02:11;;;;;;;7.20;4.03;;;;;;;-4.45;100.00;99428.22;5062774;28;20078;-59
2023/02/26 06:04:37;;;;;;;7.72;4.65;;;;;;;-4.36;100.00;99431.78;5090197;28;20028;-59
2023/02/26 06:07:02;;;;;;;7.20;5.00;;;;;;;-4.44;100.00;99429.88;5085637;28;20382;-59
2023/02/26 06:09:28;;;;;;;12.45;4.95;;;;;;;-4.29;100.00;99430.25;5063921;28;20332;-59
2023/02/26 06:11:53;;;;;;;8.65;4.22;;;;;;;-4.45;100.00;99435.25;5089055;28;20092;-59
2023/02/26 06:14:19;;;;;;;8.55;4.28;;;;;;;-4.41;100.00;99440.06;5075196;28;20287;-59
2023/02/26 06:16:44;;;;;;;8.02;4.47;;;;;;;-4.40;99.67;99436.47;5085587;28;20332;-59
2023/02/26 06:19:10;;;;;;;10.13;4.07;;;;;;;-4.28;99.11;99446.78;5082603;28;20390;-59
2023/02/26 06:21:35;;;;;;;7.80;3.50;;;;;;;-4.23;98.96;99455.03;5076522;28;20028;-59
2023/02/26 06:24:01;;;;;;;8.63;3.63;;;;;;;-4.25;98.46;99463.03;5072180;28;20086;-59
2023/02/26 06:26:26;;;;;;;6.15;3.55;;;;;;;-4.22;98.57;99462.75;5087615;28;20412;-59
2023/02/26 06:28:52;;;;;;;9.77;4.60;;;;;;;-4.14;98.33;99462.88;5084858;28;20467;-59
2023/02/26 06:31:17;;;;;;;7.47;4.47;;;;;;;-4.23;98.35;99471.56;5091884;28;20032;-59
2023/02/26 06:33:42;;;;;;;11.07;4.75;;;;;;;-4.18;98.57;99465.91;5071306;28;20067;-59
2023/02/26 06:36:08;;;;;;;7.18;4.18;;;;;;;-4.07;98.37;99470.94;5086765;28;20036;-59
2023/02/26 06:38:33;;;;;;;5.93;4.03;;;;;;;-4.00;98.21;99479.06;5078431;28;20085;-59
2023/02/26 06:40:59;;;;;;;7.03;3.67;;;;;;;-4.04;98.10;99472.47;5079766;28;20510;-58
2023/02/26 06:43:24;;;;;;;7.75;4.85;;;;;;;-3.86;97.55;99480.41;5085363;28;20024;-59
2023/02/26 06:45:50;;;;;;;12.07;5.13;;;;;;;-3.71;97.00;99490.28;5079549;28;20039;-59
2023/02/26 06:48:15;;;;;;;6.82;3.75;;;;;;;-3.81;96.22;99499.16;5091420;28;20029;-59
2023/02/26 06:50:41;;;;;;;9.40;4.40;;;;;;;-3.76;96.71;99513.47;5083192;28;20036;-62
2023/02/26 06:53:07;;;;;;;7.68;3.92;;;;;;;-3.75;97.00;99509.84;5057777;28;20371;-58
2023/02/26 06:55:32;;;;;;;7.57;3.92;;;;;;;-3.66;96.93;99520.47;5096528;28;20027;-59
2023/02/26 06:57:58;;;;;;;6.35;3.88;;;;;;;-3.75;97.64;99524.75;5065692;28;20051;-58
2023/02/26 07:00:23;;;;;;;6.60;4.75;;;;;;;-3.69;97.05;99535.50;5055724;28;20032;-59
2023/02/26 07:02:49;;;;;;;10.77;5.07;;;;;;;-3.70;96.85;99536.44;5082883;28;20086;-59
2023/02/26 07:05:15;;;;;;;14.20;5.40;;;;;;;-3.67;97.12;99542.38;5074188;28;20271;-59
2023/02/26 07:07:40;;;;;;;8.38;4.90;;;;;;;-3.63;96.79;99544.56;5071684;28;20028;-59
2023/02/26 07:10:08;;;;;;;11.23;5.38;;;;;;;-3.61;96.95;99549.69;5061757;28;20032;-59
2023/02/26 07:12:33;;;;;;;7.10;4.28;;;;;;;-3.58;96.33;99546.75;5080648;28;20040;-59
2023/02/26 07:14:59;;;;;;;6.65;4.78;;;;;;;-3.48;96.20;99550.97;5081509;28;20044;-58
2023/02/26 07:17:24;;;;;;;7.70;4.13;;;;;;;-3.49;96.47;99556.38;5075859;28;20474;-59
2023/02/26 07:19:50;;;;;;;9.15;5.00;;;;;;;-3.37;96.00;99560.47;5059771;28;20024;-58
2023/02/26 07:22:16;;;;;;;14.93;5.57;;;;;;;-3.30;95.58;99564.16;5076446;28;20024;-61
2023/02/26 07:24:42;;;;;;;10.13;4.88;;;;;;;-3.02;94.65;99569.41;5060741;28;20363;-58
2023/02/26 07:27:07;;;;;;;8.95;4.75;;;;;;;-2.01;92.28;99574.44;5076890;28;20088;-58
2023/02/26 07:29:33;;;;;;;21.35;4.55;;;;;;;-2.45;90.00;99580.47;5080880;28;20024;-58
2023/02/26 07:31:58;;;;;;;8.13;4.20;;;;;;;-2.71;91.95;99579.56;5085387;28;20033;-58
2023/02/26 07:34:24;;;;;;;8.52;4.80;;;;;;;-2.45;91.60;99577.03;5072979;28;20027;-58
2023/02/26 07:36:49;;;;;;;4.95;3.35;;;;;;;-2.03;89.42;99584.28;5078579;28;20032;-58
2023/02/26 07:39:15;;;;;;;6.10;3.78;;;;;;;-2.15;88.80;99588.94;5088554;28;20024;-58
2023/02/26 07:41:40;;;;;;;11.80;4.72;;;;;;;-2.12;89.76;99599.16;5084245;28;20423;-58
2023/02/26 07:44:06;;;;;;;7.60;3.78;;;;;;;-2.07;89.05;99596.91;5074069;28;20033;-58
2023/02/26 07:46:31;;;;;;;4.65;3.42;;;;;;;-0.46;84.02;99613.78;5089222;28;20489;-58
2023/02/26 07:48:56;;;;;;;6.63;4.25;;;;;;;0.26;79.68;99603.44;5072439;28;20032;-58
2023/02/26 07:51:22;;;;;;;11.15;4.50;;;;;;;0.68;77.12;99623.50;5086006;28;20020;-59
2023/02/26 07:53:47;;;;;;;17.17;5.55;;;;;;;0.87;77.44;99614.34;5081927;28;20036;-58
2023/02/26 07:56:13;;;;;;;11.18;5.10;;;;;;;0.34;76.00;99615.78;5078828;28;20032;-59
2023/02/26 07:58:38;;;;;;;7.45;4.65;;;;;;;0.03;76.91;99627.03;5083635;28;20020;-58
2023/02/26 08:01:04;;;;;;;7.63;4.43;;;;;;;0.54;76.28;99630.25;5082825;28;21601;-58
2023/02/26 08:03:31;;;;;;;6.97;3.90;;;;;;;0.71;73.97;99622.31;5086750;28;20042;-59
2023/02/26 08:05:59;;;;;;;11.77;5.13;;;;;;;1.20;74.65;99637.97;5055938;28;20056;-60
2023/02/26 08:08:24;;;;;;;7.82;3.85;;;;;;;1.07;75.49;99631.44;5079141;28;20092;-60
2023/02/26 08:10:50;;;;;;;6.78;3.75;;;;;;;1.34;74.22;99629.34;5081006;28;20037;-59
2023/02/26 08:13:15;;;;;;;5.95;3.47;;;;;;;1.27;73.29;99626.59;5053378;28;20375;-58
2023/02/26 08:15:42;;;;;;;8.23;3.55;;;;;;;1.53;70.82;99622.81;5057530;28;20033;-60
2023/02/26 08:18:08;;;;;;;7.75;3.70;;;;;;;1.51;72.39;99630.88;5058434;28;20431;-58
2023/02/26 08:20:34;;;;;;;7.35;3.42;;;;;;;2.05;69.59;99637.16;5063068;28;20031;-58
2023/02/26 08:22:59;;;;;;;7.85;3.83;;;;;;;1.86;68.38;99644.56;5071012;28;20024;-58
2023/02/26 08:25:25;;;;;;;9.90;3.47;;;;;;;1.68;68.32;99636.91;5066899;28;20060;-60
2023/02/26 08:27:50;;;;;;;3.58;2.25;;;;;;;1.59;66.67;99643.22;5064718;28;20063;-61
2023/02/26 08:30:16;;;;;;;4.93;2.90;;;;;;;0.72;70.09;99645.06;5061069;28;20028;-60
2023/02/26 08:32:41;;;;;;;6.13;3.55;;;;;;;2.16;67.18;99644.66;5055852;28;20406;-58
2023/02/26 08:35:08;;;;;;;9.02;3.97;;;;;;;2.64;65.07;99655.81;5056422;28;20075;-59
2023/02/26 08:37:34;;;;;;;6.50;2.90;;;;;;;1.88;64.94;99666.34;5068179;28;20488;-59
2023/02/26 08:39:59;;;;;;;4.25;2.55;;;;;;;1.61;64.76;99667.66;5063070;28;20025;-59
2023/02/26 08:42:25;;;;;;;8.60;4.47;;;;;;;1.54;66.02;99660.59;5060635;28;20041;-58
2023/02/26 08:44:50;;;;;;;6.68;3.42;;;;;;;1.98;64.50;99650.25;5068092;28;20496;-58
2023/02/26 08:47:16;;;;;;;6.68;3.53;;;;;;;1.56;64.97;99648.88;5063017;28;20036;-60
2023/02/26 08:49:41;;;;;;;7.65;3.55;;;;;;;2.06;63.31;99665.25;5055841;28;20024;-60
2023/02/26 08:52:07;;;;;;;9.35;4.15;;;;;;;1.97;63.50;99655.72;5055670;28;20035;-60
2023/02/26 08:54:32;;;;;;;4.75;3.03;;;;;;;1.65;61.68;99662.88;5069157;28;20394;-60
2023/02/26 08:56:58;;;;;;;5.38;2.60;;;;;;;1.44;63.62;99659.00;5071801;28;20036;-59
2023/02/26 08:59:24;;;;;;;4.78;2.67;;;;;;;1.90;62.83;99659.06;5061413;28;20442;-60
2023/02/26 09:01:49;;;;;;;7.22;3.38;;;;;;;1.80;63.24;99666.41;5069677;28;20029;-60
2023/02/26 09:04:15;;;;;;;5.72;2.25;;;;;;;1.27;62.37;99668.84;5061376;28;20037;-59
2023/02/26 09:06:40;;;;;;;5.28;3.13;;;;;;;1.13;64.20;99676.66;5066726;28;20100;-59
2023/02/26 09:09:06;;;;;;;3.70;2.53;;;;;;;0.35;68.04;99696.53;5053842;28;20487;-59
2023/02/26 09:11:31;;;;;;;6.10;2.78;;;;;;;0.83;66.50;99692.22;5072489;28;20440;-59
2023/02/26 09:14:01;;;;;;;3.75;2.47;;;;;;;0.52;67.02;99682.34;5079121;28;20054;-60
2023/02/26 09:16:26;;;;;;;3.83;2.58;;;;;;;1.02;66.93;99688.38;5089930;28;20032;-59
2023/02/26 09:18:52;;;;;;;6.78;2.85;;;;;;;0.55;69.29;99687.31;5056007;28;20036;-60
2023/02/26 09:21:17;;;;;;;5.93;3.45;;;;;;;0.40;68.82;99715.31;5085368;28;20032;-60
2023/02/26 09:23:43;;;;;;;9.70;5.60;;;;;;;0.31;68.99;99717.16;5081268;28;20044;-60
2023/02/26 09:26:08;;;;;;;10.23;5.95;;;;;;;0.51;70.14;99708.91;5074023;28;20027;-60
2023/02/26 09:28:34;;;;;;;32.60;21.35;;;;;;;0.41;69.96;99711.72;5083737;28;20032;-60
2023/02/26 09:30:59;;;;;;;8.00;5.32;;;;;;;0.29;69.91;99710.38;5082978;28;20185;-60
2023/02/26 09:33:25;;;;;;;7.13;2.85;;;;;;;0.55;69.73;99718.13;5078469;28;20428;-60
2023/02/26 09:35:50;;;;;;;2.80;2.20;;;;;;;0.20;68.63;99720.94;5087239;28;20465;-60
2023/02/26 09:38:16;;;;;;;2.75;2.00;;;;;;;-0.11;67.17;99715.44;5091325;28;20031;-60
2023/02/26 09:40:45;;;;;;;2.83;2.13;;;;;;;0.08;68.86;99716.97;5080154;28;20024;-60
2023/02/26 09:43:18;;;;;;;4.55;2.28;;;;;;;0.26;68.23;99716.00;5052914;28;20047;-60
2023/02/26 09:45:44;;;;;;;6.30;2.42;;;;;;;0.24;68.07;99721.44;5073616;28;20024;-60
2023/02/26 09:48:11;;;;;;;3.83;2.00;;;;;;;0.09;67.92;99728.34;5083213;28;20047;-60
2023/02/26 09:50:41;;;;;;;2.78;1.98;;;;;;;-0.38;67.74;99737.59;5062045;28;20024;-59
2023/02/26 09:53:12;;;;;;;2.63;1.83;;;;;;;-0.19;66.94;99741.78;5061780;28;20128;-60
2023/02/26 09:55:42;;;;;;;3.45;2.15;;;;;;;-0.07;69.56;99739.69;5083649;28;20033;-60
2023/02/26 09:58:31;;;;;;;2.00;1.65;;;;;;;-0.15;67.21;99752.81;5064102;28;20505;-60
2023/02/26 10:01:23;;;;;;;4.82;2.35;;;;;;;-0.17;67.88;99745.09;5056686;28;20033;-60
2023/02/26 10:03:57;;;;;;;3.50;1.63;;;;;;;-0.30;66.58;99745.53;5076551;28;20036;-60
2023/02/26 10:06:32;;;;;;;4.70;1.77;;;;;;;-0.22;67.44;99745.56;5088645;28;20024;-60
2023/02/26 10:09:19;;;;;;;3.83;1.92;;;;;;;0.03;67.16;99760.63;5070774;28;20459;-60
2023/02/26 10:11:46;;;;;;;2.78;2.00;;;;;;;0.82;64.75;99761.81;5082837;28;20040;-58
2023/02/26 10:14:31;;;;;;;3.72;1.83;;;;;;;0.01;65.83;99779.22;5057186;28;20047;-61
2023/02/26 10:17:02;;;;;;;3.83;2.30;;;;;;;0.66;63.91;99772.38;5060874;28;20029;-60
2023/02/26 10:19:29;;;;;;;4.00;2.30;;;;;;;0.32;65.22;99766.25;5061505;28;20039;-60
2023/02/26 10:22:04;;;;;;;6.50;2.67;;;;;;;1.07;63.65;99774.00;5041295;28;20465;-60
2023/02/26 10:24:38;;;;;;;41.05;13.20;;;;;;;1.67;59.19;99772.69;5084763;28;20131;-59
2023/02/26 10:27:05;;;;;;;31.52;9.35;;;;;;;1.10;61.83;99774.66;5070554;28;20035;-59
2023/02/26 10:29:48;;;;;;;15.57;7.32;;;;;;;1.16;62.08;99779.28;5073497;28;20028;-60
2023/02/26 10:33:04;;;;;;;10.32;6.60;;;;;;;1.56;64.10;99772.22;5069646;28;20086;-59
2023/02/26 10:35:31;;;;;;;4.28;2.22;;;;;;;0.99;61.81;99773.19;5039517;28;20043;-59
2023/02/26 10:37:59;;;;;;;4.88;2.10;;;;;;;0.79;61.18;99783.25;5057556;28;20055;-59
2023/02/26 10:40:25;;;;;;;5.55;2.97;;;;;;;0.76;63.96;99780.97;5083314;28;20031;-59
2023/02/26 10:43:15;;;;;;;6.88;2.40;;;;;;;0.94;64.18;99786.06;5087856;28;20029;-60
2023/02/26 10:46:06;;;;;;;4.33;2.57;;;;;;;0.77;62.76;99793.16;5062845;28;20495;-60
2023/02/26 10:48:31;;;;;;;4.68;2.60;;;;;;;0.55;61.93;99791.97;5075835;28;20088;-59
2023/02/26 10:50:58;;;;;;;6.57;3.40;;;;;;;0.54;63.05;99791.16;5079140;28;20041;-59
2023/02/26 10:53:33;;;;;;;7.57;3.95;;;;;;;0.82;62.96;99799.59;5079973;28;20119;-59
2023/02/26 10:56:06;;;;;;;6.07;2.72;;;;;;;0.81;62.71;99797.13;5084404;28;20080;-59
2023/02/26 10:58:31;;;;;;;8.30;4.18;;;;;;;0.78;62.17;99786.91;5055689;28;20389;-59
2023/02/26 11:00:56;;;;;;;10.52;4.75;;;;;;;0.70;61.12;99784.25;5070471;28;20031;-59
2023/02/26 11:03:31;;;;;;;4.90;2.08;;;;;;;0.61;61.60;99776.34;5079039;28;20311;-60
2023/02/26 11:05:57;;;;;;;4.65;2.13;;;;;;;0.80;60.96;99790.19;5063312;28;20314;-58
2023/02/26 11:08:25;;;;;;;13.30;6.05;;;;;;;1.15;61.13;99780.25;5070445;28;20032;-59
2023/02/26 11:10:56;;;;;;;5.28;2.08;;;;;;;1.00;59.75;99780.94;5066240;28;20051;-58
2023/02/26 11:13:22;;;;;;;2.58;1.70;;;;;;;0.79;56.31;99799.91;5081724;28;20098;-59
2023/02/26 11:15:51;;;;;;;2.55;1.70;;;;;;;0.92;56.39;99788.03;5061222;28;20378;-60
2023/02/26 11:18:26;;;;;;;4.20;2.20;;;;;;;1.16;57.06;99787.19;5078031;28;20028;-59
2023/02/26 11:20:54;;;;;;;7.53;3.25;;;;;;;1.19;56.58;99794.78;5077268;28;20059;-59
2023/02/26 11:23:20;;;;;;;2.13;1.40;;;;;;;0.86;55.00;99797.44;5062351;28;20035;-58
2023/02/26 11:25:45;;;;;;;2.38;1.63;;;;;;;0.92;55.28;99791.50;5054800;28;20082;-58
2023/02/26 11:28:49;;;;;;;4.82;2.22;;;;;;;1.00;54.62;99788.88;5071837;28;20478;-58
2023/02/26 11:31:17;;;;;;;3.58;1.95;;;;;;;1.20;54.05;99793.75;5035131;28;20044;-59
2023/02/26 11:33:44;;;;;;;3.45;2.05;;;;;;;1.09;53.90;99794.94;5030412;28;20041;-59
2023/02/26 11:36:19;;;;;;;3.88;1.98;;;;;;;1.13;53.88;99790.16;5058006;28;20434;-58
2023/02/26 11:38:56;;;;;;;2.75;1.60;;;;;;;1.21;54.13;99792.78;5059310;28;20027;-59
2023/02/26 11:41:22;;;;;;;3.63;1.90;;;;;;;1.15;53.52;99794.28;5060212;28;20310;-59
2023/02/26 11:43:58;;;;;;;6.90;2.25;;;;;;;1.20;53.64;99791.13;5080699;28;20036;-58
2023/02/26 11:46:24;;;;;;;4.18;2.15;;;;;;;1.33;53.57;99788.00;5065656;28;20558;-59